sensor_id;sensor_type;location;lat;lon;timestamp;pressure;altitude;pressure_sealevel;temperature;humidity
60258;BME280;46115;44.484;11.314;2023-03-05T00:02:59;100151.28;;;5.15;73.87
60258;BME280;46115;44.484;11.314;2023-03-05T00:07:01;100145.44;;;5.07;74.81
60258;BME280;46115;44.484;11.314;2023-03-05T00:11:05;100155.00;;;5.08;75.28
60258;BME280;46115;44.484;11.314;2023-03-05T00:15:09;100131.97;;;4.91;74.11
60258;BME280;46115;44.484;11.314;2023-03-05T00:19:11;100155.16;;;5.03;74.33
60258;BME280;46115;44.484;11.314;2023-03-05T00:23:13;100149.00;;;5.04;74.59
60258;BME280;46115;44.484;11.314;2023-03-05T00:27:17;100148.38;;;5.24;74.25
60258;BME280;46115;44.484;11.314;2023-03-05T00:31:21;100148.75;;;5.12;74.28
60258;BME280;46115;44.484;11.314;2023-03-05T00:35:24;100145.81;;;5.22;75.45
60258;BME280;46115;44.484;11.314;2023-03-05T00:39:26;100144.63;;;5.05;74.53
60258;BME280;46115;44.484;11.314;2023-03-05T00:43:30;100138.72;;;4.98;75.54
60258;BME280;46115;44.484;11.314;2023-03-05T00:47:32;100145.88;;;4.93;74.39
60258;BME280;46115;44.484;11.314;2023-03-05T00:51:35;100134.69;;;4.88;74.70
60258;BME280;46115;44.484;11.314;2023-03-05T00:55:37;100134.03;;;5.08;74.86
60258;BME280;46115;44.484;11.314;2023-03-05T00:59:41;100127.44;;;4.96;74.56
60258;BME280;46115;44.484;11.314;2023-03-05T01:03:43;100129.34;;;4.91;74.81
60258;BME280;46115;44.484;11.314;2023-03-05T01:07:45;100116.34;;;4.88;75.24
60258;BME280;46115;44.484;11.314;2023-03-05T01:11:47;100112.38;;;4.75;75.05
60258;BME280;46115;44.484;11.314;2023-03-05T01:15:51;100108.66;;;4.82;74.48
60258;BME280;46115;44.484;11.314;2023-03-05T01:19:54;100105.66;;;4.66;75.21
60258;BME280;46115;44.484;11.314;2023-03-05T01:23:56;100097.94;;;4.61;75.59
60258;BME280;46115;44.484;11.314;2023-03-05T01:27:59;100088.53;;;4.56;75.65
60258;BME280;46115;44.484;11.314;2023-03-05T01:32:03;100076.09;;;4.62;75.73
60258;BME280;46115;44.484;11.314;2023-03-05T01:36:06;100076.19;;;4.59;75.82
60258;BME280;46115;44.484;11.314;2023-03-05T01:40:11;100061.34;;;4.60;75.69
60258;BME280;46115;44.484;11.314;2023-03-05T01:44:21;100064.69;;;4.65;75.86
60258;BME280;46115;44.484;11.314;2023-03-05T01:48:26;100065.13;;;4.50;75.65
60258;BME280;46115;44.484;11.314;2023-03-05T01:52:31;100058.81;;;4.29;77.02
60258;BME280;46115;44.484;11.314;2023-03-05T01:56:34;100046.91;;;4.19;77.43
60258;BME280;46115;44.484;11.314;2023-03-05T02:00:40;100052.91;;;4.22;77.50
60258;BME280;46115;44.484;11.314;2023-03-05T02:04:49;100051.09;;;4.24;77.47
60258;BME280;46115;44.484;11.314;2023-03-05T02:08:54;100053.81;;;4.21;77.53
60258;BME280;46115;44.484;11.314;2023-03-05T02:12:59;100050.25;;;4.24;77.84
60258;BME280;46115;44.484;11.314;2023-03-05T02:17:02;100050.44;;;4.18;77.24
60258;BME280;46115;44.484;11.314;2023-03-05T02:21:06;100051.34;;;4.15;77.52
60258;BME280;46115;44.484;11.314;2023-03-05T02:25:14;100049.53;;;4.19;77.68
60258;BME280;46115;44.484;11.314;2023-03-05T02:29:18;100049.63;;;4.14;77.65
60258;BME280;46115;44.484;11.314;2023-03-05T02:33:22;100058.34;;;4.15;77.40
60258;BME280;46115;44.484;11.314;2023-03-05T02:37:26;100060.94;;;4.15;77.83
60258;BME280;46115;44.484;11.314;2023-03-05T02:41:28;100052.47;;;4.06;78.33
60258;BME280;46115;44.484;11.314;2023-03-05T02:45:32;100041.34;;;4.00;77.89
60258;BME280;46115;44.484;11.314;2023-03-05T02:49:34;100038.44;;;4.09;77.97
60258;BME280;46115;44.484;11.314;2023-03-05T02:53:39;100038.91;;;4.23;77.49
60258;BME280;46115;44.484;11.314;2023-03-05T02:57:41;100017.91;;;3.97;77.75
60258;BME280;46115;44.484;11.314;2023-03-05T03:01:43;100031.88;;;4.25;77.58
60258;BME280;46115;44.484;11.314;2023-03-05T03:05:46;100037.78;;;4.32;77.67
60258;BME280;46115;44.484;11.314;2023-03-05T03:09:50;100030.16;;;4.24;76.57
60258;BME280;46115;44.484;11.314;2023-03-05T03:13:52;100036.69;;;4.10;77.48
60258;BME280;46115;44.484;11.314;2023-03-05T03:17:55;100039.44;;;4.05;77.57
60258;BME280;46115;44.484;11.314;2023-03-05T03:21:57;100044.13;;;3.94;77.65
60258;BME280;46115;44.484;11.314;2023-03-05T03:26:01;100050.94;;;3.99;78.70
60258;BME280;46115;44.484;11.314;2023-03-05T03:30:04;100045.19;;;3.88;78.28
60258;BME280;46115;44.484;11.314;2023-03-05T03:34:06;100044.91;;;3.97;78.28
60258;BME280;46115;44.484;11.314;2023-03-05T03:38:09;100038.88;;;3.95;78.18
60258;BME280;46115;44.484;11.314;2023-03-05T03:42:15;100045.09;;;3.91;78.55
60258;BME280;46115;44.484;11.314;2023-03-05T03:46:17;100038.50;;;3.76;78.40
60258;BME280;46115;44.484;11.314;2023-03-05T03:50:20;100044.22;;;3.91;78.37
60258;BME280;46115;44.484;11.314;2023-03-05T03:54:24;100041.44;;;3.97;77.63
60258;BME280;46115;44.484;11.314;2023-03-05T03:58:28;100046.75;;;3.94;78.80
60258;BME280;46115;44.484;11.314;2023-03-05T04:02:30;100042.66;;;3.85;78.55
60258;BME280;46115;44.484;11.314;2023-03-05T04:06:33;100043.78;;;3.75;78.41
60258;BME280;46115;44.484;11.314;2023-03-05T04:10:35;100038.78;;;3.67;78.91
60258;BME280;46115;44.484;11.314;2023-03-05T04:14:39;100006.41;;;3.40;79.21
60258;BME280;46115;44.484;11.314;2023-03-05T04:18:41;100040.84;;;3.87;78.09
60258;BME280;46115;44.484;11.314;2023-03-05T04:22:44;100037.53;;;4.10;78.04
60258;BME280;46115;44.484;11.314;2023-03-05T04:26:46;100028.72;;;4.14;76.61
60258;BME280;46115;44.484;11.314;2023-03-05T04:30:50;100034.22;;;4.34;75.43
60258;BME280;46115;44.484;11.314;2023-03-05T04:34:52;100026.56;;;4.28;75.42
60258;BME280;46115;44.484;11.314;2023-03-05T04:38:54;100027.28;;;4.04;76.77
60258;BME280;46115;44.484;11.314;2023-03-05T04:42:56;100027.81;;;3.86;77.82
60258;BME280;46115;44.484;11.314;2023-03-05T04:47:00;100017.19;;;3.61;78.23
60258;BME280;46115;44.484;11.314;2023-03-05T04:51:03;100026.44;;;3.72;79.23
60258;BME280;46115;44.484;11.314;2023-03-05T04:55:06;100002.72;;;3.49;79.52
60258;BME280;46115;44.484;11.314;2023-03-05T04:59:09;100026.28;;;3.48;79.50
60258;BME280;46115;44.484;11.314;2023-03-05T05:03:13;100023.88;;;3.38;79.52
60258;BME280;46115;44.484;11.314;2023-03-05T05:07:15;100021.19;;;3.41;80.59
60258;BME280;46115;44.484;11.314;2023-03-05T05:11:17;100021.19;;;3.41;80.19
60258;BME280;46115;44.484;11.314;2023-03-05T05:15:20;100015.31;;;3.33;81.53
60258;BME280;46115;44.484;11.314;2023-03-05T05:19:23;100015.56;;;3.24;80.58
60258;BME280;46115;44.484;11.314;2023-03-05T05:23:26;100012.88;;;3.27;80.49
60258;BME280;46115;44.484;11.314;2023-03-05T05:27:28;100014.69;;;3.24;81.05
60258;BME280;46115;44.484;11.314;2023-03-05T05:31:31;100016.38;;;3.26;80.65
60258;BME280;46115;44.484;11.314;2023-03-05T05:35:34;100023.91;;;3.37;80.63
60258;BME280;46115;44.484;11.314;2023-03-05T05:39:39;100005.84;;;3.29;79.54
60258;BME280;46115;44.484;11.314;2023-03-05T05:43:42;100016.25;;;3.31;79.95
60258;BME280;46115;44.484;11.314;2023-03-05T05:47:44;100013.63;;;3.31;80.96
60258;BME280;46115;44.484;11.314;2023-03-05T05:51:48;100014.81;;;3.19;80.95
60258;BME280;46115;44.484;11.314;2023-03-05T05:55:50;100012.00;;;3.27;82.17
60258;BME280;46115;44.484;11.314;2023-03-05T05:59:52;100013.16;;;3.17;81.09
60258;BME280;46115;44.484;11.314;2023-03-05T06:03:55;100007.59;;;3.29;81.00
60258;BME280;46115;44.484;11.314;2023-03-05T06:07:58;100022.94;;;3.41;80.32
60258;BME280;46115;44.484;11.314;2023-03-05T06:12:01;100026.13;;;3.52;80.03
60258;BME280;46115;44.484;11.314;2023-03-05T06:16:05;100026.00;;;3.57;79.84
60258;BME280;46115;44.484;11.314;2023-03-05T06:20:10;100011.88;;;3.64;79.26
60258;BME280;46115;44.484;11.314;2023-03-05T06:24:13;100018.69;;;3.69;79.13
60258;BME280;46115;44.484;11.314;2023-03-05T06:28:16;100012.00;;;3.59;79.57
60258;BME280;46115;44.484;11.314;2023-03-05T06:32:19;100023.25;;;3.61;79.53
60258;BME280;46115;44.484;11.314;2023-03-05T06:36:22;100019.56;;;3.68;79.76
60258;BME280;46115;44.484;11.314;2023-03-05T06:40:26;100028.41;;;3.95;78.51
60258;BME280;46115;44.484;11.314;2023-03-05T06:44:29;100029.69;;;4.39;77.26
60258;BME280;46115;44.484;11.314;2023-03-05T06:48:31;100032.25;;;4.69;76.53
60258;BME280;46115;44.484;11.314;2023-03-05T06:52:33;100027.38;;;4.85;75.43
60258;BME280;46115;44.484;11.314;2023-03-05T06:56:39;100031.50;;;5.18;74.26
60258;BME280;46115;44.484;11.314;2023-03-05T07:00:42;100037.41;;;5.25;73.62
60258;BME280;46115;44.484;11.314;2023-03-05T07:04:44;100037.09;;;5.59;71.78
60258;BME280;46115;44.484;11.314;2023-03-05T07:08:47;100037.69;;;5.92;70.35
60258;BME280;46115;44.484;11.314;2023-03-05T07:12:50;100034.59;;;6.28;69.02
60258;BME280;46115;44.484;11.314;2023-03-05T07:16:53;100036.72;;;6.63;68.39
60258;BME280;46115;44.484;11.314;2023-03-05T07:20:55;100044.03;;;6.99;67.20
60258;BME280;46115;44.484;11.314;2023-03-05T07:25:03;100044.53;;;7.49;66.00
60258;BME280;46115;44.484;11.314;2023-03-05T07:29:07;100036.06;;;8.02;64.69
60258;BME280;46115;44.484;11.314;2023-03-05T07:33:09;100042.53;;;8.32;63.48
60258;BME280;46115;44.484;11.314;2023-03-05T07:37:12;100039.03;;;8.32;62.30
60258;BME280;46115;44.484;11.314;2023-03-05T07:41:17;100041.09;;;8.82;60.91
60258;BME280;46115;44.484;11.314;2023-03-05T07:45:22;100036.81;;;9.32;59.42
60258;BME280;46115;44.484;11.314;2023-03-05T07:49:24;100045.06;;;9.94;59.89
60258;BME280;46115;44.484;11.314;2023-03-05T07:53:27;100046.16;;;9.90;56.70
60258;BME280;46115;44.484;11.314;2023-03-05T07:57:29;100048.91;;;10.21;55.59
60258;BME280;46115;44.484;11.314;2023-03-05T08:01:33;100040.22;;;10.82;53.24
60258;BME280;46115;44.484;11.314;2023-03-05T08:05:37;100035.66;;;11.16;52.56
60258;BME280;46115;44.484;11.314;2023-03-05T08:09:40;100042.75;;;11.90;50.91
60258;BME280;46115;44.484;11.314;2023-03-05T08:13:43;100043.34;;;13.58;48.10
60258;BME280;46115;44.484;11.314;2023-03-05T08:17:47;100041.81;;;13.41;47.87
60258;BME280;46115;44.484;11.314;2023-03-05T08:21:49;100042.09;;;13.76;46.03
60258;BME280;46115;44.484;11.314;2023-03-05T08:25:52;100010.31;;;13.74;46.32
60258;BME280;46115;44.484;11.314;2023-03-05T08:29:54;100049.03;;;16.96;40.61
60258;BME280;46115;44.484;11.314;2023-03-05T08:33:59;100053.81;;;17.66;38.22
60258;BME280;46115;44.484;11.314;2023-03-05T08:38:02;100051.09;;;17.03;39.66
60258;BME280;46115;44.484;11.314;2023-03-05T08:42:05;100017.19;;;18.38;36.95
60258;BME280;46115;44.484;11.314;2023-03-05T08:46:09;100044.59;;;17.17;39.13
60258;BME280;46115;44.484;11.314;2023-03-05T08:50:13;100053.25;;;20.84;32.95
60258;BME280;46115;44.484;11.314;2023-03-05T08:54:15;100040.28;;;17.99;36.17
60258;BME280;46115;44.484;11.314;2023-03-05T08:58:17;100040.63;;;19.92;33.37
60258;BME280;46115;44.484;11.314;2023-03-05T09:02:20;100012.69;;;17.99;33.79
60258;BME280;46115;44.484;11.314;2023-03-05T09:06:24;100005.94;;;18.35;33.95
60258;BME280;46115;44.484;11.314;2023-03-05T09:10:27;100026.78;;;22.04;28.43
60258;BME280;46115;44.484;11.314;2023-03-05T09:14:29;100018.94;;;19.47;30.64
60258;BME280;46115;44.484;11.314;2023-03-05T09:18:32;100006.75;;;20.83;28.16
60258;BME280;46115;44.484;11.314;2023-03-05T09:22:38;100015.63;;;23.58;24.72
60258;BME280;46115;44.484;11.314;2023-03-05T09:26:40;100007.22;;;25.26;23.02
60258;BME280;46115;44.484;11.314;2023-03-05T09:30:42;100020.84;;;25.93;22.35
60258;BME280;46115;44.484;11.314;2023-03-05T09:34:45;100013.34;;;28.52;20.26
60258;BME280;46115;44.484;11.314;2023-03-05T09:38:49;100005.09;;;28.05;20.68
60258;BME280;46115;44.484;11.314;2023-03-05T09:42:59;100002.75;;;25.93;22.30
60258;BME280;46115;44.484;11.314;2023-03-05T09:47:12;100017.19;;;29.78;18.68
60258;BME280;46115;44.484;11.314;2023-03-05T09:51:21;100008.56;;;29.29;18.99
60258;BME280;46115;44.484;11.314;2023-03-05T09:55:32;100003.03;;;28.41;19.42
60258;BME280;46115;44.484;11.314;2023-03-05T09:59:41;99996.03;;;25.52;22.66
60258;BME280;46115;44.484;11.314;2023-03-05T10:03:52;99992.84;;;24.40;24.27
60258;BME280;46115;44.484;11.314;2023-03-05T10:08:00;99987.00;;;22.66;26.58
60258;BME280;46115;44.484;11.314;2023-03-05T10:12:09;99978.41;;;20.89;28.10
60258;BME280;46115;44.484;11.314;2023-03-05T10:20:55;99967.91;;;18.81;31.55
60258;BME280;46115;44.484;11.314;2023-03-05T10:25:16;99963.16;;;18.45;32.70
60258;BME280;46115;44.484;11.314;2023-03-05T10:29:38;99951.69;;;18.33;33.59
60258;BME280;46115;44.484;11.314;2023-03-05T10:33:54;99933.41;;;17.37;34.77
60258;BME280;46115;44.484;11.314;2023-03-05T10:38:24;99942.84;;;17.20;35.42
60258;BME280;46115;44.484;11.314;2023-03-05T10:42:38;99936.97;;;17.26;35.86
60258;BME280;46115;44.484;11.314;2023-03-05T10:46:44;99930.81;;;16.73;35.75
60258;BME280;46115;44.484;11.314;2023-03-05T10:50:52;99920.81;;;16.86;36.10
60258;BME280;46115;44.484;11.314;2023-03-05T10:54:55;99922.69;;;16.74;36.82
60258;BME280;46115;44.484;11.314;2023-03-05T10:58:57;99913.81;;;16.63;36.99
60258;BME280;46115;44.484;11.314;2023-03-05T11:03:03;99908.75;;;16.05;38.05
60258;BME280;46115;44.484;11.314;2023-03-05T11:07:12;99903.88;;;16.33;38.39
60258;BME280;46115;44.484;11.314;2023-03-05T11:11:29;99893.72;;;16.15;38.30
60258;BME280;46115;44.484;11.314;2023-03-05T11:15:33;99891.50;;;16.20;39.51
60258;BME280;46115;44.484;11.314;2023-03-05T11:19:36;99887.91;;;16.10;39.59
60258;BME280;46115;44.484;11.314;2023-03-05T11:23:39;99877.84;;;16.14;39.17
60258;BME280;46115;44.484;11.314;2023-03-05T11:27:47;99876.50;;;16.19;38.99
60258;BME280;46115;44.484;11.314;2023-03-05T11:31:52;99858.03;;;15.73;39.89
60258;BME280;46115;44.484;11.314;2023-03-05T11:36:12;99841.19;;;15.39;41.11
60258;BME280;46115;44.484;11.314;2023-03-05T11:40:18;99835.97;;;15.82;40.57
60258;BME280;46115;44.484;11.314;2023-03-05T11:44:23;99833.53;;;16.02;41.00
60258;BME280;46115;44.484;11.314;2023-03-05T11:48:31;99827.22;;;16.03;40.77
60258;BME280;46115;44.484;11.314;2023-03-05T11:52:41;99824.25;;;16.17;40.24
60258;BME280;46115;44.484;11.314;2023-03-05T11:56:46;99817.66;;;16.00;40.07
60258;BME280;46115;44.484;11.314;2023-03-05T12:00:49;99808.81;;;16.00;40.53
60258;BME280;46115;44.484;11.314;2023-03-05T12:04:52;99787.41;;;15.56;40.00
60258;BME280;46115;44.484;11.314;2023-03-05T12:09:00;99793.25;;;15.06;40.96
60258;BME280;46115;44.484;11.314;2023-03-05T12:13:06;99790.09;;;15.01;42.24
60258;BME280;46115;44.484;11.314;2023-03-05T12:17:16;99788.50;;;15.76;41.26
60258;BME280;46115;44.484;11.314;2023-03-05T12:21:29;99779.47;;;15.34;41.73
60258;BME280;46115;44.484;11.314;2023-03-05T12:25:46;99770.09;;;15.51;39.98
60258;BME280;46115;44.484;11.314;2023-03-05T12:29:50;99765.88;;;15.71;40.71
60258;BME280;46115;44.484;11.314;2023-03-05T12:33:52;99748.97;;;15.05;42.22
60258;BME280;46115;44.484;11.314;2023-03-05T12:38:05;99753.41;;;15.71;40.04
60258;BME280;46115;44.484;11.314;2023-03-05T12:42:48;99745.56;;;15.36;41.51
60258;BME280;46115;44.484;11.314;2023-03-05T12:47:14;99735.41;;;15.30;41.90
60258;BME280;46115;44.484;11.314;2023-03-05T12:51:30;99716.53;;;15.33;41.77
60258;BME280;46115;44.484;11.314;2023-03-05T12:55:35;99720.84;;;15.45;41.32
60258;BME280;46115;44.484;11.314;2023-03-05T12:59:44;99717.34;;;15.22;42.75
60258;BME280;46115;44.484;11.314;2023-03-05T13:03:52;99689.66;;;15.36;42.65
60258;BME280;46115;44.484;11.314;2023-03-05T13:08:09;99712.53;;;15.27;42.89
60258;BME280;46115;44.484;11.314;2023-03-05T13:12:12;99705.03;;;15.33;42.84
60258;BME280;46115;44.484;11.314;2023-03-05T13:16:17;99699.09;;;15.18;43.66
60258;BME280;46115;44.484;11.314;2023-03-05T13:20:27;99696.78;;;15.36;43.16
60258;BME280;46115;44.484;11.314;2023-03-05T13:24:30;99692.16;;;15.49;42.68
60258;BME280;46115;44.484;11.314;2023-03-05T13:28:32;99670.88;;;15.38;42.38
60258;BME280;46115;44.484;11.314;2023-03-05T13:32:36;99683.28;;;14.94;41.74
60258;BME280;46115;44.484;11.314;2023-03-05T13:36:38;99677.47;;;15.00;40.85
60258;BME280;46115;44.484;11.314;2023-03-05T13:40:41;99680.63;;;15.59;40.60
60258;BME280;46115;44.484;11.314;2023-03-05T13:44:52;99675.72;;;15.21;41.25
60258;BME280;46115;44.484;11.314;2023-03-05T13:48:57;99672.38;;;15.08;42.88
60258;BME280;46115;44.484;11.314;2023-03-05T13:53:13;99664.25;;;15.32;41.68
60258;BME280;46115;44.484;11.314;2023-03-05T13:57:32;99665.72;;;14.91;42.28
60258;BME280;46115;44.484;11.314;2023-03-05T14:01:42;99653.03;;;15.06;42.37
60258;BME280;46115;44.484;11.314;2023-03-05T14:05:46;99627.25;;;15.07;42.99
60258;BME280;46115;44.484;11.314;2023-03-05T14:09:51;99648.22;;;15.43;41.47
60258;BME280;46115;44.484;11.314;2023-03-05T14:14:01;99648.00;;;15.35;42.12
60258;BME280;46115;44.484;11.314;2023-03-05T14:18:18;99641.66;;;15.47;42.33
60258;BME280;46115;44.484;11.314;2023-03-05T14:22:30;99610.81;;;15.02;42.68
60258;BME280;46115;44.484;11.314;2023-03-05T14:26:33;99629.97;;;15.39;42.04
60258;BME280;46115;44.484;11.314;2023-03-05T14:30:36;99621.91;;;15.50;42.56
60258;BME280;46115;44.484;11.314;2023-03-05T14:34:40;99634.50;;;15.59;41.82
60258;BME280;46115;44.484;11.314;2023-03-05T14:38:44;99631.84;;;15.48;42.31
60258;BME280;46115;44.484;11.314;2023-03-05T14:42:51;99622.19;;;15.47;42.02
60258;BME280;46115;44.484;11.314;2023-03-05T14:46:53;99627.13;;;15.63;41.68
60258;BME280;46115;44.484;11.314;2023-03-05T14:50:55;99606.75;;;15.29;42.29
60258;BME280;46115;44.484;11.314;2023-03-05T14:54:59;99603.28;;;15.50;42.22
60258;BME280;46115;44.484;11.314;2023-03-05T14:59:02;99588.13;;;15.29;41.34
60258;BME280;46115;44.484;11.314;2023-03-05T15:03:04;99600.09;;;15.56;40.55
60258;BME280;46115;44.484;11.314;2023-03-05T15:07:10;99585.22;;;15.21;41.03
60258;BME280;46115;44.484;11.314;2023-03-05T15:11:18;99576.31;;;15.43;40.03
60258;BME280;46115;44.484;11.314;2023-03-05T15:15:22;99586.78;;;15.24;39.07
60258;BME280;46115;44.484;11.314;2023-03-05T15:19:25;99582.09;;;15.16;39.05
60258;BME280;46115;44.484;11.314;2023-03-05T15:23:27;99580.47;;;15.36;38.62
60258;BME280;46115;44.484;11.314;2023-03-05T15:27:36;99573.59;;;15.22;39.12
60258;BME280;46115;44.484;11.314;2023-03-05T15:31:39;99568.28;;;15.22;38.95
60258;BME280;46115;44.484;11.314;2023-03-05T15:35:41;99563.38;;;15.39;38.89
60258;BME280;46115;44.484;11.314;2023-03-05T15:39:43;99573.59;;;15.22;37.99
60258;BME280;46115;44.484;11.314;2023-03-05T15:43:47;99575.53;;;15.32;38.45
60258;BME280;46115;44.484;11.314;2023-03-05T15:47:50;99562.16;;;15.43;38.52
60258;BME280;46115;44.484;11.314;2023-03-05T15:51:52;99560.16;;;15.24;37.79
60258;BME280;46115;44.484;11.314;2023-03-05T15:55:56;99539.75;;;15.13;38.58
60258;BME280;46115;44.484;11.314;2023-03-05T16:00:00;99545.78;;;15.26;38.46
60258;BME280;46115;44.484;11.314;2023-03-05T16:04:02;99520.47;;;15.21;38.53
60258;BME280;46115;44.484;11.314;2023-03-05T16:08:05;99532.78;;;15.01;38.61
60258;BME280;46115;44.484;11.314;2023-03-05T16:12:11;99539.03;;;15.11;39.03
60258;BME280;46115;44.484;11.314;2023-03-05T16:16:16;99536.50;;;15.10;39.33
60258;BME280;46115;44.484;11.314;2023-03-05T16:20:20;99529.91;;;14.93;39.41
60258;BME280;46115;44.484;11.314;2023-03-05T16:24:22;99530.34;;;15.09;39.07
60258;BME280;46115;44.484;11.314;2023-03-05T16:28:24;99526.78;;;15.20;39.29
60258;BME280;46115;44.484;11.314;2023-03-05T16:32:28;99525.53;;;15.03;39.41
60258;BME280;46115;44.484;11.314;2023-03-05T16:36:31;99516.97;;;14.88;40.17
60258;BME280;46115;44.484;11.314;2023-03-05T16:40:36;99481.19;;;14.92;41.27
60258;BME280;46115;44.484;11.314;2023-03-05T16:44:38;99519.75;;;14.87;42.62
60258;BME280;46115;44.484;11.314;2023-03-05T16:48:42;99517.34;;;14.95;43.69
60258;BME280;46115;44.484;11.314;2023-03-05T16:52:44;99517.16;;;14.64;46.02
60258;BME280;46115;44.484;11.314;2023-03-05T16:56:47;99516.69;;;14.37;45.72
60258;BME280;46115;44.484;11.314;2023-03-05T17:00:49;99522.97;;;14.47;48.58
60258;BME280;46115;44.484;11.314;2023-03-05T17:04:53;99516.69;;;14.37;49.85
60258;BME280;46115;44.484;11.314;2023-03-05T17:08:56;99517.53;;;14.15;51.32
60258;BME280;46115;44.484;11.314;2023-03-05T17:12:59;99517.28;;;14.07;51.69
60258;BME280;46115;44.484;11.314;2023-03-05T17:17:01;99527.56;;;13.89;52.62
60258;BME280;46115;44.484;11.314;2023-03-05T17:21:05;99522.00;;;13.92;53.23
60258;BME280;46115;44.484;11.314;2023-03-05T17:25:08;99524.38;;;13.73;53.70
60258;BME280;46115;44.484;11.314;2023-03-05T17:29:11;99541.44;;;13.47;54.29
60258;BME280;46115;44.484;11.314;2023-03-05T17:33:13;99543.41;;;13.56;54.64
60258;BME280;46115;44.484;11.314;2023-03-05T17:37:17;99545.38;;;13.30;55.43
60258;BME280;46115;44.484;11.314;2023-03-05T23:06:09;99569.88;;;10.37;53.70
60258;BME280;46115;44.484;11.314;2023-03-05T23:10:13;99567.81;;;10.42;53.57
60258;BME280;46115;44.484;11.314;2023-03-05T23:14:15;99567.81;;;10.42;53.17
60258;BME280;46115;44.484;11.314;2023-03-05T23:18:18;99561.00;;;10.52;54.36
60258;BME280;46115;44.484;11.314;2023-03-05T23:22:21;99559.78;;;10.43;53.77
60258;BME280;46115;44.484;11.314;2023-03-05T23:26:24;99558.66;;;10.47;54.15
60258;BME280;46115;44.484;11.314;2023-03-05T23:30:26;99555.63;;;10.39;54.05
60258;BME280;46115;44.484;11.314;2023-03-05T23:34:28;99552.63;;;10.45;54.19
60258;BME280;46115;44.484;11.314;2023-03-05T23:38:32;99551.19;;;10.40;53.92
60258;BME280;46115;44.484;11.314;2023-03-05T23:42:36;99547.03;;;10.36;53.46
60258;BME280;46115;44.484;11.314;2023-03-05T23:46:39;99544.03;;;10.42;53.73
60258;BME280;46115;44.484;11.314;2023-03-05T23:50:44;99540.84;;;10.22;53.66
60258;BME280;46115;44.484;11.314;2023-03-05T23:54:48;99540.25;;;10.17;54.22
60258;BME280;46115;44.484;11.314;2023-03-05T23:58:51;99538.56;;;10.16;54.61
